Time;durP1;ratioP1;P1;durP2;ratioP2;P2;SDS_P1;SDS_P2;PMS_P1;PMS_P2;Temp;Humidity;BMP_temperature;BMP_pressure;BME280_temperature;BME280_humidity;BME280_pressure;Samples;Min_cycle;Max_cycle;Signal;HPM_P1;HPM_P2
2023/06/20 00:02:02;;;;;;;9.10;8.20;;;15.60;1.00;;;;;;5090007;28;20477;-70
2023/06/20 00:04:28;;;;;;;10.13;8.63;;;15.60;1.00;;;;;;5084488;28;20467;-71
2023/06/20 00:06:54;;;;;;;8.87;7.97;;;15.50;1.00;;;;;;5076397;28;20489;-69
2023/06/20 00:09:23;;;;;;;10.13;8.60;;;15.40;1.00;;;;;;5094320;28;20193;-69
2023/06/20 00:12:48;;;;;;;10.60;9.50;;;15.30;1.00;;;;;;5093368;28;20407;-71
2023/06/20 00:15:25;;;;;;;14.63;9.90;;;15.30;1.00;;;;;;5053609;28;20459;-70
2023/06/20 00:17:55;;;;;;;10.30;8.83;;;15.30;1.00;;;;;;5093762;28;20491;-69
2023/06/20 00:20:21;;;;;;;9.67;8.43;;;15.30;1.00;;;;;;5085068;28;20491;-70
2023/06/20 00:22:50;;;;;;;10.10;9.10;;;15.30;1.00;;;;;;5093933;28;20428;-70
2023/06/20 00:25:46;;;;;;;9.10;8.20;;;15.30;1.00;;;;;;5093987;28;20400;-70
2023/06/20 00:28:46;;;;;;;10.10;9.00;;;15.20;1.00;;;;;;5060970;28;20447;-69
2023/06/20 00:34:35;;;;;;;11.60;10.40;;;15.20;1.00;;;;;;5017871;28;20486;-70
2023/06/20 00:37:03;;;;;;;11.43;9.70;;;15.20;1.00;;;;;;5093775;28;20411;-70
2023/06/20 00:39:30;;;;;;;11.47;10.30;;;15.20;1.00;;;;;;5093749;28;20174;-69
2023/06/20 00:41:56;;;;;;;11.13;9.53;;;15.30;1.00;;;;;;5074873;28;20502;-70
2023/06/20 00:44:21;;;;;;;13.60;9.47;;;15.20;1.00;;;;;;5092886;28;20463;-71
2023/06/20 00:46:47;;;;;;;10.77;9.67;;;15.20;1.00;;;;;;5093594;28;20411;-70
2023/06/20 00:49:13;;;;;;;10.20;8.77;;;15.20;1.00;;;;;;5093607;28;20520;-69
2023/06/20 00:51:47;;;;;;;12.13;8.70;;;15.10;1.00;;;;;;5073894;28;20439;-69
2023/06/20 00:54:52;;;;;;;11.27;10.17;;;15.00;1.00;;;;;;5092822;28;20258;-69
2023/06/20 00:58:12;;;;;;;12.30;9.90;;;14.90;1.00;;;;;;5089511;28;20485;-69
2023/06/20 01:03:38;;;;;;;9.53;8.60;;;14.90;1.00;;;;;;4971996;28;20472;-69
2023/06/20 01:06:17;;;;;;;14.53;9.13;;;14.90;1.00;;;;;;4998040;28;20443;-69
2023/06/20 01:09:20;;;;;;;12.73;11.43;;;14.80;1.00;;;;;;5029634;28;20465;-70
2023/06/20 01:11:57;;;;;;;11.50;10.00;;;14.80;1.00;;;;;;5040996;28;20426;-71
2023/06/20 01:15:11;;;;;;;12.20;9.30;;;14.80;1.00;;;;;;5072468;28;20436;-70
2023/06/20 01:18:47;;;;;;;13.27;10.20;;;14.80;1.00;;;;;;5073051;28;20418;-69
2023/06/20 01:21:49;;;;;;;15.33;10.10;;;14.70;1.00;;;;;;5027508;28;20450;-70
2023/06/20 01:24:18;;;;;;;14.10;10.40;;;14.70;1.00;;;;;;5030944;28;20574;-69
2023/06/20 01:27:01;;;;;;;15.73;10.30;;;14.60;1.00;;;;;;5071956;28;20415;-69
2023/06/20 01:29:50;;;;;;;13.20;10.87;;;14.60;1.00;;;;;;5085144;28;20412;-70
2023/06/20 01:32:19;;;;;;;15.17;9.10;;;14.60;1.00;;;;;;5092361;28;20407;-69
2023/06/20 01:34:49;;;;;;;11.97;10.57;;;14.50;1.00;;;;;;5086783;28;20529;-70
2023/06/20 01:37:28;;;;;;;14.10;11.40;;;14.50;1.00;;;;;;5054339;28;20436;-69
2023/06/20 01:39:58;;;;;;;13.27;10.00;;;14.30;1.00;;;;;;5074588;28;20512;-70
2023/06/20 01:42:26;;;;;;;11.60;10.40;;;14.30;1.00;;;;;;5092353;28;20400;-70
2023/06/20 01:44:55;;;;;;;10.57;9.50;;;14.30;1.00;;;;;;5092852;28;20525;-71
2023/06/20 01:47:23;;;;;;;14.00;10.30;;;14.30;1.00;;;;;;5092218;28;20465;-69
2023/06/20 01:49:52;;;;;;;10.83;9.73;;;14.20;1.00;;;;;;5065629;28;20428;-70
2023/06/20 01:55:14;;;;;;;11.53;10.10;;;14.20;1.00;;;;;;5072395;28;20416;-69
2023/06/20 01:58:01;;;;;;;11.90;9.43;;;14.20;1.00;;;;;;5079200;28;20458;-70
2023/06/20 02:00:29;;;;;;;10.63;9.53;;;14.10;1.00;;;;;;5091904;28;20412;-70
2023/06/20 02:02:59;;;;;;;11.37;10.17;;;14.10;1.00;;;;;;5089462;28;21289;-69
2023/06/20 02:05:31;;;;;;;10.83;9.73;;;14.10;1.00;;;;;;5095617;28;20423;-71
2023/06/20 02:08:04;;;;;;;10.90;9.80;;;14.10;1.00;;;;;;5096440;28;20906;-69
2023/06/20 02:10:31;;;;;;;12.37;9.80;;;14.10;1.00;;;;;;5095698;28;20411;-70
2023/06/20 02:12:58;;;;;;;11.50;10.40;;;14.10;1.00;;;;;;5096439;28;20506;-69
2023/06/20 02:15:26;;;;;;;12.37;10.10;;;14.10;1.00;;;;;;5078484;28;20407;-70
2023/06/20 02:17:55;;;;;;;13.23;10.37;;;14.00;1.00;;;;;;5076811;28;20435;-69
2023/06/20 02:20:22;;;;;;;12.27;9.93;;;14.00;1.00;;;;;;5094912;28;20427;-71
2023/06/20 02:23:09;;;;;;;14.80;11.30;;;13.90;1.00;;;;;;5095676;28;20387;-71
2023/06/20 02:25:48;;;;;;;16.00;11.60;;;13.80;1.00;;;;;;5096343;28;20733;-71
2023/06/20 02:28:15;;;;;;;12.23;9.60;;;13.80;1.00;;;;;;5096368;28;20390;-70
2023/06/20 02:30:42;;;;;;;10.20;9.17;;;13.70;1.00;;;;;;5077192;28;20428;-70
2023/06/20 02:33:10;;;;;;;12.30;10.43;;;13.70;1.00;;;;;;5095296;28;20546;-70
2023/06/20 02:35:37;;;;;;;12.17;10.80;;;13.70;1.00;;;;;;5096215;28;20457;-70
2023/06/20 02:38:05;;;;;;;17.70;9.80;;;13.70;1.00;;;;;;5095377;28;20428;-70
2023/06/20 02:40:31;;;;;;;13.60;11.20;;;13.70;1.00;;;;;;5094681;28;20753;-70
2023/06/20 02:42:57;;;;;;;18.47;11.83;;;13.70;1.00;;;;;;5095769;28;20484;-69
2023/06/20 02:45:23;;;;;;;12.33;10.43;;;13.70;1.00;;;;;;5095179;28;20189;-69
2023/06/20 02:48:27;;;;;;;12.33;10.97;;;13.70;1.00;;;;;;5095855;28;20165;-70
2023/06/20 02:51:15;;;;;;;11.47;10.13;;;13.60;1.00;;;;;;5095051;28;20172;-70
2023/06/20 02:53:59;;;;;;;13.10;10.23;;;13.60;1.00;;;;;;5078027;28;20460;-71
2023/06/20 02:56:29;;;;;;;13.20;11.20;;;13.60;1.00;;;;;;5095629;28;20402;-70
2023/06/20 02:59:00;;;;;;;13.53;10.43;;;13.60;1.00;;;;;;5095226;28;20383;-71
2023/06/20 03:01:30;;;;;;;13.00;11.70;;;13.60;1.00;;;;;;5093881;28;20442;-69
2023/06/20 03:04:02;;;;;;;11.80;10.43;;;13.50;1.00;;;;;;5095380;28;20444;-70
2023/06/20 03:06:28;;;;;;;13.33;9.83;;;13.40;1.00;;;;;;5095597;28;20427;-70
2023/06/20 03:08:57;;;;;;;11.73;10.40;;;13.40;1.00;;;;;;5094632;28;20435;-69
2023/06/20 03:11:23;;;;;;;13.10;10.77;;;13.40;1.00;;;;;;5094590;28;20404;-70
2023/06/20 03:13:49;;;;;;;13.90;10.90;;;13.40;1.00;;;;;;5093260;28;20454;-69
2023/06/20 03:16:15;;;;;;;12.83;10.13;;;13.40;1.00;;;;;;5095246;28;20442;-69
2023/06/20 03:18:41;;;;;;;12.80;11.33;;;13.40;1.00;;;;;;5094706;28;20465;-69
2023/06/20 03:21:06;;;;;;;11.57;10.37;;;13.40;1.00;;;;;;5094339;28;20264;-70
2023/06/20 03:23:32;;;;;;;13.50;10.13;;;13.40;1.00;;;;;;5095221;28;20248;-70
2023/06/20 03:25:59;;;;;;;11.33;10.00;;;13.40;1.00;;;;;;5077002;28;20210;-69
2023/06/20 03:28:25;;;;;;;13.23;11.50;;;13.50;1.00;;;;;;5075862;28;20431;-70
2023/06/20 03:30:52;;;;;;;14.53;11.10;;;13.50;1.00;;;;;;5094363;28;20478;-69
2023/06/20 03:33:18;;;;;;;11.20;10.03;;;13.50;1.00;;;;;;5076939;28;20967;-69
2023/06/20 03:35:43;;;;;;;12.80;10.20;;;13.60;1.00;;;;;;5095114;28;20404;-71
2023/06/20 03:38:10;;;;;;;13.57;10.80;;;13.60;1.00;;;;;;5094292;28;20386;-70
2023/06/20 03:40:38;;;;;;;11.70;10.40;;;13.60;1.00;;;;;;5093956;28;20177;-70
2023/06/20 03:43:05;;;;;;;12.57;11.23;;;13.50;1.00;;;;;;5061471;28;20506;-70
2023/06/20 03:45:31;;;;;;;14.47;10.80;;;13.30;1.00;;;;;;5075294;28;20508;-69
2023/06/20 03:47:57;;;;;;;12.03;9.37;;;13.20;1.00;;;;;;5094793;28;20408;-69
2023/06/20 03:50:23;;;;;;;12.27;10.33;;;13.20;1.00;;;;;;5093740;28;20173;-71
2023/06/20 03:52:49;;;;;;;12.90;11.20;;;13.20;1.00;;;;;;5094646;28;20176;-69
2023/06/20 03:55:14;;;;;;;13.20;10.50;;;13.40;1.00;;;;;;5076365;28;20528;-69
2023/06/20 03:57:40;;;;;;;17.20;12.17;;;13.40;1.00;;;;;;5093213;28;20188;-69
2023/06/20 04:00:16;;;;;;;14.90;12.40;;;13.50;1.00;;;;;;5093586;28;20903;-71
2023/06/20 04:02:42;;;;;;;12.50;11.20;;;13.60;1.00;;;;;;5094306;28;20180;-70
2023/06/20 04:05:09;;;;;;;12.40;11.17;;;13.70;1.00;;;;;;5094395;28;20455;-70
2023/06/20 04:07:35;;;;;;;14.40;11.67;;;13.80;1.00;;;;;;5094486;28;21025;-69
2023/06/20 04:10:01;;;;;;;13.03;10.70;;;13.90;1.00;;;;;;5092751;28;20439;-69
2023/06/20 04:12:27;;;;;;;17.03;11.03;;;14.00;1.00;;;;;;5092240;28;20435;-70
2023/06/20 04:14:56;;;;;;;16.50;11.33;;;14.20;1.00;;;;;;5093554;28;20506;-68
2023/06/20 04:17:22;;;;;;;26.70;15.90;;;14.30;1.00;;;;;;5076258;28;20502;-69
2023/06/20 04:19:51;;;;;;;28.50;16.00;;;14.40;1.00;;;;;;5075998;28;20569;-75
2023/06/20 04:22:17;;;;;;;24.43;15.70;;;14.50;1.00;;;;;;5093320;28;20407;-70
2023/06/20 04:24:43;;;;;;;36.60;20.30;;;14.60;5.00;;;;;;5092055;28;20459;-74
2023/06/20 04:27:11;;;;;;;33.97;20.40;;;14.70;47.70;;;;;;5093934;28;20434;-70
2023/06/20 04:29:37;;;;;;;40.63;24.70;;;14.80;93.80;;;;;;5094131;28;20407;-69
2023/06/20 04:32:03;;;;;;;39.43;22.10;;;15.00;99.90;;;;;;5092440;28;20413;-70
2023/06/20 04:34:29;;;;;;;45.73;22.90;;;15.10;99.90;;;;;;5092114;28;20799;-70
2023/06/20 04:37:01;;;;;;;36.57;20.73;;;15.30;99.90;;;;;;5093802;28;20399;-70
2023/06/20 04:43:09;;;;;;;33.23;19.40;;;15.50;99.90;;;;;;5031215;28;20421;-70
2023/06/20 04:45:38;;;;;;;38.70;22.20;;;15.50;99.90;;;;;;5031485;28;20422;-70
2023/06/20 04:48:05;;;;;;;35.83;21.33;;;15.50;99.90;;;;;;5076512;28;20436;-70
2023/06/20 04:50:31;;;;;;;28.43;18.97;;;15.60;99.90;;;;;;5092235;28;20406;-72
2023/06/20 04:53:01;;;;;;;30.13;21.70;;;15.60;99.90;;;;;;5093380;28;20435;-69
2023/06/20 04:55:29;;;;;;;34.97;19.90;;;15.70;99.90;;;;;;5093447;28;20396;-69
2023/06/20 04:57:58;;;;;;;36.00;21.00;;;15.70;99.90;;;;;;5093459;28;20541;-69
2023/06/20 05:07:36;;;;;;;33.80;20.50;;;15.70;99.90;;;;;;4972138;28;20413;-71
2023/06/20 05:10:02;;;;;;;26.33;18.93;;;15.90;99.90;;;;;;5010106;28;20447;-70
2023/06/20 05:12:32;;;;;;;32.43;21.20;;;15.90;99.90;;;;;;5010578;28;20419;-70
2023/06/20 05:14:58;;;;;;;33.70;19.73;;;16.00;99.90;;;;;;5053945;28;20459;-71
2023/06/20 05:17:35;;;;;;;26.23;19.60;;;16.10;99.90;;;;;;5093286;28;20420;-70
2023/06/20 05:20:06;;;;;;;30.83;20.00;;;16.10;99.90;;;;;;5092964;28;20792;-70
2023/06/20 05:22:42;;;;;;;31.83;20.07;;;16.10;99.90;;;;;;5092409;28;20492;-70
2023/06/20 05:29:19;;;;;;;30.60;19.93;;;16.20;99.90;;;;;;5030352;28;21040;-70
2023/06/20 05:35:19;;;;;;;27.13;18.50;;;16.40;1.00;;;;;;5067707;28;20502;-72
2023/06/20 05:38:22;;;;;;;31.13;20.00;;;16.40;1.00;;;;;;5076307;28;20407;-72
2023/06/20 05:41:43;;;;;;;26.50;17.70;;;16.50;1.00;;;;;;5096348;28;20433;-70
2023/06/20 05:43:44;;;;;;;26.70;17.60;;;16.60;1.00;;;;;;5081140;28;20462;-71
2023/06/20 05:46:11;;;;;;;29.93;17.87;;;16.70;1.00;;;;;;5097165;28;20399;-67
2023/06/20 05:49:17;;;;;;;21.00;17.37;;;16.70;1.00;;;;;;5087674;28;20900;-69
2023/06/20 05:52:01;;;;;;;24.27;15.80;;;16.70;1.00;;;;;;5092137;28;20415;-70
2023/06/20 05:54:27;;;;;;;26.03;16.60;;;16.80;1.00;;;;;;5096841;28;20427;-69
2023/06/20 05:56:58;;;;;;;20.13;15.60;;;16.90;1.00;;;;;;5077912;28;20449;-67
2023/06/20 05:59:27;;;;;;;19.70;15.90;;;17.00;1.00;;;;;;5078268;28;20854;-67
2023/06/20 06:01:53;;;;;;;17.93;15.17;;;17.10;1.00;;;;;;5095756;28;20900;-67
2023/06/20 06:04:19;;;;;;;21.13;13.30;;;17.20;1.00;;;;;;5096745;28;20455;-67
2023/06/20 06:06:45;;;;;;;16.00;13.97;;;17.40;1.00;;;;;;5065229;28;20182;-67
2023/06/20 06:09:17;;;;;;;17.93;13.63;;;17.50;1.00;;;;;;5076328;28;20158;-68
2023/06/20 06:11:47;;;;;;;19.00;14.93;;;17.60;1.00;;;;;;5057425;28;20408;-68
2023/06/20 06:14:21;;;;;;;18.53;14.83;;;17.70;1.00;;;;;;5076261;28;20537;-68
2023/06/20 06:16:47;;;;;;;18.10;14.50;;;17.80;99.90;;;;;;5076201;28;20420;-68
2023/06/20 06:19:20;;;;;;;17.30;14.20;;;17.90;99.90;;;;;;5075797;28;20415;-69
2023/06/20 06:21:47;;;;;;;13.73;12.23;;;17.90;99.90;;;;;;5073456;28;20424;-69
2023/06/20 06:24:13;;;;;;;20.07;14.40;;;18.00;99.90;;;;;;5076034;28;20555;-68
2023/06/20 06:26:39;;;;;;;14.03;11.73;;;18.10;99.90;;;;;;5076097;28;20401;-67
2023/06/20 06:29:05;;;;;;;17.90;12.17;;;18.20;99.90;;;;;;5085126;28;20951;-68
2023/06/20 06:31:43;;;;;;;15.40;12.73;;;18.30;99.90;;;;;;5085281;28;20517;-68
2023/06/20 06:34:29;;;;;;;14.47;11.97;;;18.40;99.90;;;;;;5081861;28;20193;-69
2023/06/20 06:36:55;;;;;;;14.40;12.50;;;18.40;99.90;;;;;;5095032;28;20560;-69
2023/06/20 06:39:35;;;;;;;17.03;13.90;;;18.50;99.90;;;;;;5095474;28;20522;-67
2023/06/20 06:42:01;;;;;;;14.40;12.20;;;18.60;99.90;;;;;;5095146;28;20415;-69
2023/06/20 06:48:29;;;;;;;14.00;12.57;;;18.90;99.90;;;;;;5093959;28;20468;-70
2023/06/20 06:57:11;;;;;;;12.90;11.60;;;18.90;99.90;;;;;;5031547;28;20438;-71
2023/06/20 06:59:40;;;;;;;11.70;10.50;;;19.00;99.90;;;;;;5072875;28;20451;-71
2023/06/20 07:05:49;;;;;;;11.83;9.67;;;19.10;99.90;;;;;;5013426;28;20461;-71
2023/06/20 07:08:15;;;;;;;10.33;9.33;;;19.20;99.90;;;;;;5047061;28;20422;-69
2023/06/20 07:10:41;;;;;;;11.13;8.80;;;19.30;99.90;;;;;;5094652;28;20407;-69
2023/06/20 07:13:45;;;;;;;12.10;9.60;;;19.40;99.90;;;;;;5094770;28;20937;-70
2023/06/20 07:16:11;;;;;;;9.53;8.43;;;19.60;95.50;;;;;;5094682;28;20474;-70
2023/06/20 07:18:40;;;;;;;13.53;9.73;;;19.80;96.80;;;;;;5077412;28;20411;-72
2023/06/20 07:21:06;;;;;;;10.27;9.17;;;20.00;84.30;;;;;;5094447;28;20396;-72
2023/06/20 07:23:35;;;;;;;11.80;10.70;;;20.10;66.70;;;;;;5095016;28;20466;-70
2023/06/20 07:26:55;;;;;;;10.30;8.30;;;20.20;37.00;;;;;;5095125;28;20965;-71
2023/06/20 07:29:21;;;;;;;10.30;8.50;;;20.30;13.80;;;;;;5079661;28;20428;-72
2023/06/20 07:34:32;;;;;;;10.23;8.40;;;20.30;1.00;;;;;;5091239;28;20516;-72
2023/06/20 07:37:22;;;;;;;11.20;7.23;;;20.30;1.00;;;;;;5095201;28;20876;-71
2023/06/20 07:40:09;;;;;;;13.93;8.80;;;20.40;1.00;;;;;;5068766;28;20420;-74
2023/06/20 07:45:43;;;;;;;8.07;7.27;;;20.60;1.00;;;;;;5012700;28;20410;-72
2023/06/20 07:51:10;;;;;;;8.10;6.50;;;20.70;1.00;;;;;;5051311;28;20418;-73
2023/06/20 07:53:35;;;;;;;6.83;6.23;;;20.80;1.00;;;;;;5079731;28;20468;-72
2023/06/20 07:56:31;;;;;;;7.30;6.60;;;20.90;1.00;;;;;;5094407;28;20519;-72
2023/06/20 07:59:12;;;;;;;6.97;6.37;;;21.00;1.00;;;;;;5067703;28;20707;-72
2023/06/20 08:01:41;;;;;;;7.43;6.73;;;21.10;1.00;;;;;;5091736;28;20519;-72
2023/06/20 08:04:59;;;;;;;9.00;6.53;;;21.10;1.00;;;;;;5094257;28;20460;-72
2023/06/20 08:08:04;;;;;;;7.37;6.13;;;21.10;1.00;;;;;;5020410;28;20485;-72
2023/06/20 08:10:30;;;;;;;7.60;6.90;;;21.30;1.00;;;;;;4991637;28;20428;-72
2023/06/20 08:13:44;;;;;;;7.07;6.37;;;21.40;1.00;;;;;;4991796;28;20457;-70
2023/06/20 08:16:10;;;;;;;8.23;7.23;;;21.60;1.00;;;;;;5073617;28;20173;-71
2023/06/20 08:18:45;;;;;;;8.63;6.90;;;21.70;1.00;;;;;;5094149;28;20465;-71
2023/06/20 08:21:21;;;;;;;9.10;6.87;;;21.70;1.00;;;;;;5093125;28;20169;-73
2023/06/20 08:23:57;;;;;;;;;;;;;;;;;;;;;
2023/06/20 08:26:54;;;;;;;6.70;6.00;;;21.80;1.00;;;;;;5093999;28;20835;-72
2023/06/20 08:32:06;;;;;;;6.80;5.73;;;21.90;1.00;;;;;;5048571;28;20744;-72
2023/06/20 08:35:08;;;;;;;11.60;6.47;;;22.00;1.00;;;;;;5086734;28;20472;-71
2023/06/20 08:37:34;;;;;;;5.70;5.00;;;22.20;1.00;;;;;;5093444;28;20513;-71
2023/06/20 08:40:00;;;;;;;5.80;5.27;;;22.30;1.00;;;;;;5075309;28;20890;-71
2023/06/20 08:42:29;;;;;;;4.83;4.43;;;22.50;1.00;;;;;;5092954;28;20174;-72
2023/06/20 08:45:14;;;;;;;12.77;5.57;;;22.70;1.00;;;;;;5092958;28;20455;-71
2023/06/20 08:47:40;;;;;;;6.97;5.87;;;22.90;1.00;;;;;;5093455;28;20423;-72
2023/06/20 08:50:07;;;;;;;6.27;5.17;;;23.00;1.00;;;;;;5092557;28;20937;-73
2023/06/20 08:52:48;;;;;;;4.87;3.80;;;23.20;1.00;;;;;;5092598;28;20178;-73
2023/06/20 08:56:54;;;;;;;4.97;4.53;;;23.20;1.00;;;;;;5092733;28;20415;-70
2023/06/20 09:01:35;;;;;;;4.73;4.33;;;23.10;1.00;;;;;;5092723;28;20557;-71
2023/06/20 09:04:01;;;;;;;4.77;4.37;;;23.30;1.00;;;;;;5093126;28;20486;-72
2023/06/20 09:06:39;;;;;;;5.37;4.10;;;23.60;1.00;;;;;;5091736;28;20468;-72
2023/06/20 09:12:31;;;;;;;;;;;;;;;;;;;;;
2023/06/20 09:14:57;;;;;;;5.93;4.80;;;23.70;99.90;;;;;;5089258;28;20439;-72
2023/06/20 09:17:35;;;;;;;10.17;5.57;;;23.70;99.90;;;;;;5075121;28;20510;-72
2023/06/20 09:20:01;;;;;;;6.10;5.50;;;23.90;99.90;;;;;;5093071;28;20695;-71
2023/06/20 09:22:29;;;;;;;5.47;5.00;;;24.00;99.90;;;;;;5074210;28;20399;-71
2023/06/20 09:24:55;;;;;;;7.87;6.07;;;24.10;99.90;;;;;;5091701;28;20451;-72
2023/06/20 09:27:24;;;;;;;8.57;6.80;;;24.00;99.90;;;;;;5092671;28;20422;-72
2023/06/20 09:29:51;;;;;;;7.07;6.37;;;23.90;99.90;;;;;;5074965;28;20169;-74
2023/06/20 09:32:21;;;;;;;6.23;5.63;;;24.10;1.00;;;;;;5074058;28;20919;-71
2023/06/20 09:34:48;;;;;;;6.80;6.20;;;24.20;1.00;;;;;;5092878;28;20416;-71
2023/06/20 09:37:17;;;;;;;6.70;6.10;;;24.50;1.00;;;;;;5091676;28;20446;-73
2023/06/20 09:40:06;;;;;;;7.67;6.27;;;24.60;1.00;;;;;;5093017;28;20399;-73
2023/06/20 09:42:32;;;;;;;6.60;6.10;;;24.80;1.00;;;;;;5080376;28;20446;-71
2023/06/20 09:44:58;;;;;;;8.97;5.67;;;25.20;1.00;;;;;;5092802;28;20490;-72
2023/06/20 09:47:24;;;;;;;6.20;5.70;;;25.50;1.00;;;;;;5092837;28;20163;-73
2023/06/20 09:49:54;;;;;;;5.93;5.30;;;25.70;1.00;;;;;;5073589;28;20181;-72
2023/06/20 09:52:21;;;;;;;6.47;5.40;;;25.60;1.00;;;;;;5074299;28;20499;-72
2023/06/20 09:55:02;;;;;;;6.80;5.47;;;25.80;1.00;;;;;;5074928;28;20526;-71
2023/06/20 09:57:50;;;;;;;6.43;5.93;;;26.20;1.00;;;;;;5092300;28;20434;-71
2023/06/20 10:00:17;;;;;;;7.23;5.63;;;26.60;1.00;;;;;;5091544;28;20423;-73
2023/06/20 10:02:45;;;;;;;6.20;5.70;;;27.00;1.00;;;;;;5092764;28;20549;-74
2023/06/20 10:05:16;;;;;;;6.37;5.77;;;27.20;1.00;;;;;;5091328;28;20523;-72
2023/06/20 10:07:43;;;;;;;6.00;5.40;;;27.60;99.90;;;;;;5092170;28;20419;-74
2023/06/20 10:10:10;;;;;;;5.97;5.50;;;27.60;99.90;;;;;;5091900;28;20477;-74
2023/06/20 10:12:40;;;;;;;7.17;5.97;;;27.10;99.90;;;;;;5092451;28;20399;-71
2023/06/20 10:15:07;;;;;;;5.63;5.13;;;26.70;99.90;;;;;;5090532;28;20426;-74
2023/06/20 10:17:38;;;;;;;7.07;5.50;;;26.50;99.90;;;;;;5092643;28;20422;-72
2023/06/20 10:20:08;;;;;;;5.60;5.20;;;26.40;99.90;;;;;;5091451;28;20396;-75
2023/06/20 10:22:46;;;;;;;6.93;5.60;;;25.90;99.90;;;;;;5092633;28;20408;-71
2023/06/20 10:25:14;;;;;;;6.10;5.50;;;25.70;99.90;;;;;;5095957;28;20450;-74
2023/06/20 10:27:53;;;;;;;6.00;5.40;;;25.80;99.90;;;;;;5077433;28;20415;-74
2023/06/20 10:30:50;;;;;;;6.70;5.20;;;26.20;99.90;;;;;;5088701;28;20775;-74
2023/06/20 10:33:30;;;;;;;5.37;4.87;;;26.00;99.90;;;;;;5095810;28;20427;-74
2023/06/20 10:35:59;;;;;;;5.60;5.17;;;26.30;99.90;;;;;;5096067;28;20402;-71
2023/06/20 10:38:26;;;;;;;6.13;5.13;;;26.80;99.90;;;;;;5095729;28;20431;-73
2023/06/20 10:41:20;;;;;;;11.63;5.57;;;27.50;99.90;;;;;;5095503;28;20400;-74
2023/06/20 10:43:57;;;;;;;5.60;5.17;;;27.60;99.90;;;;;;5094496;28;20546;-72
2023/06/20 10:46:41;;;;;;;5.40;4.90;;;27.10;99.90;;;;;;5096097;28;20402;-72
2023/06/20 10:49:09;;;;;;;4.60;4.13;;;27.10;99.90;;;;;;5095849;28;20392;-74
2023/06/20 10:51:50;;;;;;;5.20;4.70;;;27.00;99.90;;;;;;5094946;28;20469;-74
2023/06/20 10:54:17;;;;;;;4.60;4.30;;;27.00;99.90;;;;;;5095747;28;20415;-71
2023/06/20 10:56:43;;;;;;;8.77;5.17;;;26.90;99.90;;;;;;5076597;28;21125;-73
2023/06/20 10:59:10;;;;;;;9.63;5.07;;;26.90;99.90;;;;;;5094004;28;20443;-72
2023/06/20 11:01:37;;;;;;;4.80;4.40;;;27.10;99.90;;;;;;5094736;28;20400;-74
2023/06/20 11:04:06;;;;;;;4.23;3.93;;;26.90;99.90;;;;;;5093651;28;20464;-74
2023/06/20 11:06:33;;;;;;;5.00;4.50;;;26.80;99.90;;;;;;5095549;28;20395;-72
2023/06/20 11:08:59;;;;;;;4.00;3.70;;;26.60;99.90;;;;;;5095693;28;20422;-73
2023/06/20 11:11:51;;;;;;;4.90;4.50;;;26.60;99.90;;;;;;5076309;28;20934;-73
2023/06/20 11:14:21;;;;;;;4.20;3.80;;;26.50;99.90;;;;;;5091896;28;20435;-73
2023/06/20 11:16:49;;;;;;;4.33;4.03;;;26.40;99.90;;;;;;5094854;28;20408;-73
2023/06/20 11:19:19;;;;;;;8.00;4.33;;;26.40;99.90;;;;;;5094618;28;20427;-73
2023/06/20 11:21:44;;;;;;;4.30;3.93;;;26.40;99.90;;;;;;5094368;28;20930;-72
2023/06/20 11:24:11;;;;;;;4.47;4.07;;;26.40;99.90;;;;;;5095084;28;20447;-71
2023/06/20 11:26:37;;;;;;;6.27;5.33;;;26.40;99.90;;;;;;5095227;28;20260;-73
2023/06/20 11:29:04;;;;;;;5.80;5.30;;;26.20;99.90;;;;;;5095252;28;20745;-74
2023/06/20 11:31:31;;;;;;;8.13;5.50;;;26.10;99.90;;;;;;5076207;28;20452;-73
2023/06/20 11:34:08;;;;;;;5.73;5.23;;;25.90;99.90;;;;;;5075305;28;20490;-73
2023/06/20 11:36:34;;;;;;;8.40;5.80;;;25.90;99.90;;;;;;5094075;28;20411;-72
2023/06/20 11:39:07;;;;;;;6.33;5.73;;;25.70;99.90;;;;;;5077053;28;20919;-72
2023/06/20 11:41:34;;;;;;;6.30;5.70;;;25.70;99.90;;;;;;5094110;28;20408;-72
2023/06/20 11:44:01;;;;;;;5.50;5.10;;;25.60;99.90;;;;;;5094471;28;20443;-74
2023/06/20 11:46:27;;;;;;;5.90;5.40;;;26.30;99.90;;;;;;5094066;28;20565;-74
2023/06/20 11:48:57;;;;;;;5.53;5.07;;;27.40;99.90;;;;;;5094900;28;20447;-73
2023/06/20 11:51:25;;;;;;;4.90;4.40;;;28.10;99.90;;;;;;5093896;28;20398;-72
2023/06/20 11:54:01;;;;;;;4.60;4.10;;;29.00;99.90;;;;;;5093886;28;20929;-73
2023/06/20 11:56:27;;;;;;;4.57;4.23;;;29.80;99.90;;;;;;5094676;28;20408;-73
2023/06/20 11:58:53;;;;;;;8.23;4.10;;;30.20;99.90;;;;;;5094124;28;20426;-73
2023/06/20 12:01:22;;;;;;;4.87;4.47;;;30.50;99.90;;;;;;5091122;28;20252;-73
2023/06/20 12:04:03;;;;;;;4.23;3.90;;;31.00;99.90;;;;;;5093100;28;20546;-73
2023/06/20 12:06:33;;;;;;;4.30;4.00;;;30.80;99.90;;;;;;5094264;28;20392;-72
2023/06/20 12:09:11;;;;;;;4.43;4.13;;;30.70;99.90;;;;;;5094174;28;20900;-74
2023/06/20 12:11:52;;;;;;;5.00;4.60;;;30.90;99.90;;;;;;5093197;28;20387;-74
2023/06/20 12:14:18;;;;;;;5.50;5.10;;;30.40;99.90;;;;;;5093716;28;20469;-75
2023/06/20 12:16:44;;;;;;;5.70;5.13;;;30.00;99.90;;;;;;5074105;28;20423;-73
2023/06/20 12:19:10;;;;;;;5.30;4.90;;;30.30;99.90;;;;;;5073943;28;20408;-75
2023/06/20 12:21:39;;;;;;;5.23;4.73;;;30.10;99.90;;;;;;5073113;28;20166;-73
2023/06/20 12:24:09;;;;;;;5.50;5.07;;;30.20;99.90;;;;;;5072354;28;20988;-74
2023/06/20 12:26:35;;;;;;;5.60;4.80;;;30.60;99.90;;;;;;5073729;28;20745;-73
2023/06/20 12:29:02;;;;;;;5.20;4.60;;;30.70;99.90;;;;;;5072799;28;20442;-76
2023/06/20 12:31:27;;;;;;;4.70;4.30;;;30.80;99.90;;;;;;5090828;28;20462;-74
2023/06/20 12:33:53;;;;;;;8.73;5.47;;;30.40;99.90;;;;;;5093838;28;20463;-74
2023/06/20 12:36:19;;;;;;;5.60;5.10;;;30.00;99.90;;;;;;5093870;28;20162;-73
2023/06/20 12:38:45;;;;;;;5.57;5.13;;;29.60;99.90;;;;;;5075626;28;20663;-72
2023/06/20 12:41:11;;;;;;;6.17;5.57;;;28.60;99.90;;;;;;5091886;28;20712;-74
2023/06/20 12:43:38;;;;;;;6.10;5.60;;;27.80;99.90;;;;;;5075172;28;20208;-74
2023/06/20 12:46:04;;;;;;;6.47;4.90;;;27.70;99.90;;;;;;5093286;28;20432;-75
2023/06/20 12:48:31;;;;;;;5.70;5.10;;;27.50;99.90;;;;;;5074831;28;20771;-75
2023/06/20 12:50:57;;;;;;;5.53;5.03;;;27.20;99.90;;;;;;5069966;28;20462;-75
2023/06/20 12:53:23;;;;;;;5.50;5.10;;;27.10;99.90;;;;;;5093509;28;20492;-75
2023/06/20 12:55:49;;;;;;;5.50;5.00;;;27.10;99.90;;;;;;5075658;28;20404;-75
2023/06/20 12:58:15;;;;;;;6.93;6.33;;;26.90;99.90;;;;;;5092546;28;20499;-75
2023/06/20 13:00:42;;;;;;;5.87;5.27;;;26.40;99.90;;;;;;5092494;28;21057;-73
2023/06/20 13:03:09;;;;;;;6.10;5.53;;;26.00;99.90;;;;;;5092078;28;20439;-75
2023/06/20 13:05:35;;;;;;;5.50;5.10;;;25.70;99.90;;;;;;5068205;28;20455;-74
2023/06/20 13:08:02;;;;;;;5.33;4.93;;;25.60;99.90;;;;;;5068543;28;20411;-74
2023/06/20 13:10:29;;;;;;;6.97;5.70;;;25.40;99.90;;;;;;5092359;28;20765;-75
2023/06/20 13:12:56;;;;;;;5.77;5.37;;;25.40;99.90;;;;;;5093214;28;20400;-73
2023/06/20 13:15:24;;;;;;;6.27;5.40;;;25.60;99.90;;;;;;5092469;28;20788;-74
2023/06/20 13:17:54;;;;;;;6.90;5.17;;;25.80;99.90;;;;;;5092428;28;20431;-74
2023/06/20 13:20:26;;;;;;;6.03;5.43;;;25.90;99.90;;;;;;5074115;28;20407;-75
2023/06/20 13:22:52;;;;;;;6.17;5.67;;;25.80;99.90;;;;;;5089817;28;21080;-75
2023/06/20 13:25:19;;;;;;;6.60;5.33;;;25.50;99.90;;;;;;5091999;28;20455;-73
2023/06/20 13:27:50;;;;;;;6.20;5.60;;;25.50;99.90;;;;;;5093074;28;20918;-74
2023/06/20 13:30:19;;;;;;;5.67;5.27;;;25.40;99.90;;;;;;5092330;28;20412;-74
2023/06/20 13:32:46;;;;;;;5.60;5.10;;;25.40;99.90;;;;;;5092880;28;20458;-74
2023/06/20 13:35:12;;;;;;;7.50;5.70;;;25.50;99.90;;;;;;5093044;28;20415;-74
2023/06/20 13:37:39;;;;;;;6.00;5.50;;;25.30;99.90;;;;;;5074211;28;20993;-73
2023/06/20 13:40:27;;;;;;;;;;;;;;;;;;;;;
2023/06/20 13:46:04;;;;;;;9.23;6.10;;;24.70;99.90;;;;;;5010792;28;20418;-73
2023/06/20 13:48:31;;;;;;;6.10;5.60;;;24.70;99.90;;;;;;5092864;28;20387;-75
2023/06/20 13:50:56;;;;;;;5.67;5.17;;;24.80;99.90;;;;;;5090167;28;20703;-74
2023/06/20 13:53:30;;;;;;;8.63;4.87;;;24.60;99.90;;;;;;5092118;28;20439;-74
2023/06/20 13:55:56;;;;;;;6.23;5.63;;;24.50;99.90;;;;;;5075020;28;20169;-74
2023/06/20 13:58:22;;;;;;;6.50;5.87;;;24.60;99.90;;;;;;5075633;28;20514;-74
2023/06/20 14:00:48;;;;;;;6.50;4.63;;;24.70;99.90;;;;;;5095559;28;20926;-74
2023/06/20 14:03:14;;;;;;;5.43;4.93;;;24.80;99.90;;;;;;5078534;28;20435;-73
2023/06/20 14:05:40;;;;;;;6.17;5.30;;;24.70;99.90;;;;;;5077810;28;20789;-74
2023/06/20 14:08:06;;;;;;;5.57;5.07;;;24.60;99.90;;;;;;5078127;28;20255;-73
2023/06/20 14:10:32;;;;;;;5.77;4.73;;;24.50;99.90;;;;;;5095059;28;20433;-74
2023/06/20 14:12:58;;;;;;;5.00;4.50;;;24.50;99.90;;;;;;5093486;28;20447;-74
2023/06/20 14:15:24;;;;;;;6.37;5.83;;;24.50;99.90;;;;;;5094757;28;20509;-74